»·PEaware :: N978AP KAWO-KOLM

N978AP :: KAWO-KOLM

FLIGHT INFORMATION

Flight Status: Arrived
Operator: Privately registered:
United States
More flights under this callsign
Pilot: Aleksander S. (18457)
Aircraft: CESSNA 172 SKYHAWK
(C172)
More flights by this aircraft type
Origin: KAWO Arlington Mun
United States
Destination: KOLM Olympia
United States
More flights between these airports :: More routes between these airports
Route: +PPAUL COSTO GIRTE
File this flight plan on PilotEdge
Remarks: request clearance for class B VFR transition route
Altitude:
(Current/Filed)
3,500ft
Speed:
(Current/Filed)
115kts
Departed: 08-Mar-18 05:25 PM
Arrived: 08-Mar-18 06:38 PM
Distance/Time
Traveled:
77nm/1:13
Distance/Time
To Go:
Arrived

Flight Plot

Page will automatically refresh every two minutes.

Flight plan parsing failed; only flown route is shown


Map Options




Map Legend


Flown Route
Filed Route
Departure Airport
Arrival Airport
Navaid (VOR, NDB)
Fix

Horizontal Profiles

Position Reports

Time Latitude Longitude Heading Altitude Ground
Speed
08-Mar-18 17:07 48.168010 -122.154110 359 139ft 0kts
08-Mar-18 17:08 48.168010 -122.154110 359 139ft 0kts
08-Mar-18 17:09 48.168010 -122.154110 359 139ft 0kts
08-Mar-18 17:10 48.168010 -122.154110 359 139ft 0kts
08-Mar-18 17:11 48.168010 -122.154110 359 139ft 0kts
08-Mar-18 17:12 48.168010 -122.154110 359 139ft 0kts
08-Mar-18 17:13 48.168010 -122.154110 359 139ft 0kts
08-Mar-18 17:14 48.168010 -122.154110 359 139ft 0kts
08-Mar-18 17:15 48.168009 -122.154110 359 139ft 0kts
08-Mar-18 17:16 48.168009 -122.154110 1 139ft 0kts
08-Mar-18 17:20 48.168010 -122.154110 359 139ft 0kts
08-Mar-18 17:21 48.168009 -122.154110 359 139ft 0kts
08-Mar-18 17:22 48.168009 -122.154110 359 139ft 0kts
08-Mar-18 17:23 48.168008 -122.154110 8 139ft 0kts
08-Mar-18 17:24 48.168008 -122.154110 8 139ft 0kts
08-Mar-18 17:25 48.168008 -122.154110 8 139ft 0kts
08-Mar-18 17:26 48.168013 -122.154105 51 139ft 0kts
08-Mar-18 17:27 48.167998 -122.154081 157 139ft 0kts
08-Mar-18 17:28 48.169528 -122.154474 359 138ft 19kts
08-Mar-18 17:29 48.169356 -122.155498 231 139ft 5kts
08-Mar-18 17:30 48.168963 -122.156316 229 137ft 4kts
08-Mar-18 17:31 48.168559 -122.156497 179 137ft 2kts
08-Mar-18 17:32 48.159247 -122.157855 175 437ft 57kts
08-Mar-18 17:33 48.147165 -122.161460 182 1012ft 57kts
08-Mar-18 17:34 48.136504 -122.177588 209 1516ft 73kts
08-Mar-18 17:35 48.123505 -122.196001 210 1899ft 91kts
08-Mar-18 17:36 48.103228 -122.220749 210 1491ft 105kts
08-Mar-18 17:37 48.088225 -122.238766 206 1330ft 76kts
08-Mar-18 17:38 48.074950 -122.255234 206 1021ft 74kts
08-Mar-18 17:39 48.062118 -122.271449 207 1020ft 94kts
08-Mar-18 17:40 48.043686 -122.291811 205 1191ft 100kts
08-Mar-18 17:41 48.024348 -122.310308 196 1260ft 108kts
08-Mar-18 17:42 48.002010 -122.325898 196 1259ft 116kts
08-Mar-18 17:43 47.979690 -122.341010 195 1256ft 108kts
08-Mar-18 17:44 47.957701 -122.355306 196 1083ft 105kts
08-Mar-18 17:45 47.941901 -122.366944 196 1024ft 62kts
08-Mar-18 17:46 47.929902 -122.377135 195 1021ft 74kts
08-Mar-18 17:47 47.913007 -122.388932 196 974ft 93kts
08-Mar-18 17:48 47.894662 -122.400975 195 1003ft 102kts
08-Mar-18 17:49 47.873557 -122.414493 195 1159ft 100kts
08-Mar-18 17:50 47.853061 -122.427578 195 1201ft 103kts
08-Mar-18 17:51 47.832550 -122.440746 195 1069ft 106kts
08-Mar-18 17:52 47.811658 -122.452469 192 997ft 99kts
08-Mar-18 17:53 47.792448 -122.464527 196 997ft 100kts
08-Mar-18 17:54 47.772054 -122.479351 198 1001ft 101kts
08-Mar-18 17:55 47.754343 -122.493095 200 1005ft 102kts
08-Mar-18 17:56 47.735347 -122.503084 180 999ft 93kts
08-Mar-18 17:57 47.716335 -122.505069 179 1003ft 93kts
08-Mar-18 17:58 47.702995 -122.506342 179 1001ft 94kts
08-Mar-18 17:59 47.683156 -122.508130 179 999ft 97kts
08-Mar-18 18:00 47.663572 -122.509864 179 1007ft 99kts
08-Mar-18 18:01 47.642635 -122.511691 179 994ft 97kts
08-Mar-18 18:02 47.622933 -122.513374 179 1002ft 96kts
08-Mar-18 18:03 47.603177 -122.515055 178 1004ft 95kts
08-Mar-18 18:04 47.585134 -122.522496 199 1040ft 92kts
08-Mar-18 18:05 47.568036 -122.532736 201 1050ft 90kts
08-Mar-18 18:06 47.550658 -122.543354 202 1049ft 99kts
08-Mar-18 18:07 47.531693 -122.555016 202 1056ft 104kts
08-Mar-18 18:08 47.513035 -122.566521 202 1144ft 89kts
08-Mar-18 18:09 47.497500 -122.576085 202 1255ft 84kts
08-Mar-18 18:10 47.481744 -122.585769 202 1336ft 81kts
08-Mar-18 18:11 47.468080 -122.594150 202 1551ft 76kts
08-Mar-18 18:12 47.456740 -122.601102 202 1554ft 83kts
08-Mar-18 18:13 47.441053 -122.610671 205 1550ft 84kts
08-Mar-18 18:14 47.425500 -122.620375 204 1556ft 93kts
08-Mar-18 18:15 47.409452 -122.630770 205 1554ft 99kts
08-Mar-18 18:16 47.391501 -122.642462 204 1565ft 100kts
08-Mar-18 18:17 47.374143 -122.653314 204 1579ft 100kts
08-Mar-18 18:18 47.355498 -122.664835 203 1577ft 99kts
08-Mar-18 18:19 47.336795 -122.676336 203 1581ft 98kts
08-Mar-18 18:20 47.318961 -122.687298 203 1583ft 100kts
08-Mar-18 18:21 47.300949 -122.698347 203 1574ft 99kts
08-Mar-18 18:22 47.283298 -122.709187 203 1579ft 100kts
08-Mar-18 18:23 47.265504 -122.720081 203 1584ft 99kts
08-Mar-18 18:24 47.246223 -122.731883 204 1466ft 106kts
08-Mar-18 18:25 47.231462 -122.740926 203 1430ft 95kts
08-Mar-18 18:26 47.215666 -122.750577 203 1430ft 90kts
08-Mar-18 18:27 47.199112 -122.760691 203 1239ft 100kts
08-Mar-18 18:28 47.181449 -122.771480 204 1134ft 95kts
08-Mar-18 18:29 47.164569 -122.781777 203 1134ft 95kts
08-Mar-18 18:30 47.147402 -122.792240 203 1137ft 97kts
08-Mar-18 18:31 47.130087 -122.802788 203 1130ft 97kts
08-Mar-18 18:32 47.113282 -122.813027 203 1127ft 97kts
08-Mar-18 18:33 47.096384 -122.823300 203 1132ft 98kts
08-Mar-18 18:34 47.079670 -122.833449 203 1130ft 94kts
08-Mar-18 18:35 47.064597 -122.842601 203 1129ft 90kts
08-Mar-18 18:36 47.049383 -122.851405 200 1143ft 89kts
08-Mar-18 18:37 47.034898 -122.858188 200 1126ft 73kts
08-Mar-18 18:38 47.022865 -122.864866 210 1086ft 60kts
08-Mar-18 18:39 47.016406 -122.877895 230 1079ft 60kts
08-Mar-18 18:40 47.009166 -122.888793 213 1042ft 43kts
08-Mar-18 18:41 47.002176 -122.893704 202 727ft 44kts
08-Mar-18 18:42 46.994348 -122.897100 197 531ft 43kts
08-Mar-18 18:43 46.985958 -122.899454 198 356ft 45kts
08-Mar-18 18:44 46.978091 -122.901966 196 277ft 41kts
08-Mar-18 18:45 46.971389 -122.904036 193 200ft 17kts
08-Mar-18 18:46 46.969064 -122.904717 192 200ft 8kts
08-Mar-18 18:47 46.967080 -122.904051 89 200ft 10kts
08-Mar-18 18:48 46.967832 -122.901097 9 201ft 14kts
08-Mar-18 18:49 46.970287 -122.899891 46 200ft 14kts
08-Mar-18 18:50 46.972357 -122.896637 33 200ft 11kts
08-Mar-18 18:51 46.973993 -122.898282 320 198ft 12kts
08-Mar-18 18:52 46.975728 -122.899548 294 195ft 6kts
08-Mar-18 18:53 46.976242 -122.900252 75 194ft 3kts
08-Mar-18 18:54 46.976254 -122.900140 87 194ft 0kts
08-Mar-18 18:55 46.976254 -122.900140 87 194ft 0kts
08-Mar-18 18:56 46.976254 -122.900140 87 194ft 0kts
08-Mar-18 18:57 46.976254 -122.900140 86 194ft 0kts
08-Mar-18 18:58 46.976254 -122.900140 87 194ft 0kts

Navigation Log

Ident Type
Flight plan parsing failed, navigation log unavailable